Time;durP1;ratioP1;P1;durP2;ratioP2;P2;SDS_P1;SDS_P2;PMS_P1;PMS_P2;Temp;Humidity;BMP_temperature;BMP_pressure;BME280_temperature;BME280_humidity;BME280_pressure;Samples;Min_cycle;Max_cycle;Signal;HPM_P1;HPM_P2
2023/05/27 00:01:14;;;;;;;22.77;20.02;;;24.00;67.70;;;;;;4821927;54;21042;-34
2023/05/27 00:06:16;;;;;;;23.38;20.37;;;24.00;67.60;;;;;;4803934;55;21068;-35
2023/05/27 00:11:17;;;;;;;22.83;18.48;;;24.00;67.70;;;;;;4869910;55;21005;-39
2023/05/27 00:16:19;;;;;;;23.95;20.15;;;24.00;67.70;;;;;;4740221;59;21021;-38
2023/05/27 00:21:21;;;;;;;25.25;20.70;;;24.00;67.60;;;;;;4868292;55;21583;-35
2023/05/27 00:26:21;;;;;;;22.85;19.12;;;24.00;67.70;;;;;;4765116;55;21072;-35
2023/05/27 00:31:23;;;;;;;26.00;20.20;;;24.00;67.60;;;;;;4743029;55;21527;-37
2023/05/27 00:36:24;;;;;;;24.92;19.25;;;24.00;67.60;;;;;;4740059;59;21627;-36
2023/05/27 00:41:26;;;;;;;24.80;20.55;;;24.00;67.60;;;;;;4765996;55;21128;-37
2023/05/27 00:46:27;;;;;;;24.25;20.60;;;24.00;67.60;;;;;;4745982;55;21499;-34
2023/05/27 00:51:28;;;;;;;23.55;19.52;;;24.00;67.60;;;;;;4742451;55;21017;-34
2023/05/27 00:56:30;;;;;;;24.37;20.05;;;24.00;67.60;;;;;;4758645;55;21053;-37
2023/05/27 01:01:33;;;;;;;23.58;18.30;;;24.00;67.60;;;;;;4740933;55;21021;-34
2023/05/27 01:07:10;;;;;;;24.35;20.02;;;24.00;67.70;;;;;;4854862;55;21679;-34
2023/05/27 01:12:35;;;;;;;26.08;19.70;;;24.00;67.60;;;;;;4771395;55;21448;-36
2023/05/27 01:17:39;;;;;;;24.75;19.95;;;24.00;67.60;;;;;;4817026;55;21554;-34
2023/05/27 01:22:41;;;;;;;25.37;19.95;;;24.00;67.60;;;;;;4740805;59;21061;-35
2023/05/27 01:27:42;;;;;;;26.20;20.58;;;24.00;67.60;;;;;;4739886;59;22574;-36
2023/05/27 01:32:57;;;;;;;25.65;20.45;;;24.00;67.60;;;;;;4740256;59;21001;-39
2023/05/27 01:38:02;;;;;;;25.75;19.80;;;24.00;67.60;;;;;;4802778;55;21108;-38
2023/05/27 01:43:05;;;;;;;26.73;20.75;;;24.00;67.60;;;;;;4961738;55;21049;-33
2023/05/27 01:48:06;;;;;;;26.05;20.42;;;24.00;67.60;;;;;;4771412;55;21021;-33
2023/05/27 01:53:07;;;;;;;23.40;18.65;;;24.00;67.60;;;;;;4787373;55;21440;-34
2023/05/27 01:58:08;;;;;;;24.87;19.70;;;24.00;67.60;;;;;;4836725;55;21093;-33
2023/05/27 02:03:09;;;;;;;25.12;18.92;;;24.00;67.60;;;;;;4793490;55;21001;-34
2023/05/27 02:08:10;;;;;;;28.35;20.30;;;24.00;67.60;;;;;;4836145;55;21468;-35
2023/05/27 02:13:11;;;;;;;26.40;20.23;;;24.00;67.60;;;;;;4741527;55;21532;-34
2023/05/27 02:18:12;;;;;;;26.50;19.92;;;24.00;67.60;;;;;;4741285;55;21206;-33
2023/05/27 02:23:13;;;;;;;26.70;20.42;;;24.00;67.60;;;;;;4857788;55;21487;-35
2023/05/27 02:28:14;;;;;;;28.85;21.85;;;24.00;67.50;;;;;;4739127;59;21057;-33
2023/05/27 02:33:15;;;;;;;29.98;21.12;;;24.00;67.60;;;;;;4740388;56;21552;-36
2023/05/27 02:38:16;;;;;;;26.42;20.83;;;24.00;67.60;;;;;;4827644;55;21101;-36
2023/05/27 02:43:16;;;;;;;24.77;19.73;;;24.00;67.60;;;;;;4805693;55;21504;-36
2023/05/27 02:48:17;;;;;;;28.67;20.40;;;24.00;67.50;;;;;;4862978;55;21080;-37
2023/05/27 02:53:18;;;;;;;24.70;18.92;;;24.00;67.60;;;;;;4740365;59;20993;-37
2023/05/27 02:58:19;;;;;;;25.23;19.37;;;24.00;67.60;;;;;;4760330;55;21021;-36
2023/05/27 03:03:20;;;;;;;27.65;20.35;;;24.00;67.60;;;;;;4740305;55;21544;-37
2023/05/27 03:08:21;;;;;;;31.65;21.42;;;24.00;67.60;;;;;;4747209;55;21511;-39
2023/05/27 03:13:22;;;;;;;27.25;21.00;;;23.90;67.60;;;;;;4832166;55;21025;-34
2023/05/27 03:18:23;;;;;;;27.62;20.67;;;24.00;67.60;;;;;;4761813;55;21503;-33
2023/05/27 03:23:24;;;;;;;27.23;21.25;;;24.00;67.70;;;;;;4785658;55;21013;-37
2023/05/27 03:28:24;;;;;;;28.35;19.60;;;23.90;67.70;;;;;;4758578;54;21876;-33
2023/05/27 03:33:25;;;;;;;29.27;20.98;;;23.90;67.70;;;;;;4763786;55;21398;-36
2023/05/27 03:38:26;;;;;;;26.17;19.33;;;23.90;67.70;;;;;;4750563;55;21382;-38
2023/05/27 03:43:29;;;;;;;28.83;21.12;;;23.90;67.70;;;;;;4748472;55;21314;-36
2023/05/27 03:48:30;;;;;;;29.58;21.27;;;23.90;67.60;;;;;;4761489;55;21552;-35
2023/05/27 03:53:31;;;;;;;26.23;18.65;;;23.90;67.70;;;;;;4753378;55;21077;-35
2023/05/27 03:58:32;;;;;;;28.52;21.48;;;23.90;67.70;;;;;;4796349;55;21642;-36
2023/05/27 04:03:33;;;;;;;30.17;21.27;;;23.90;67.70;;;;;;4760973;55;21038;-38
2023/05/27 04:08:35;;;;;;;27.98;20.77;;;23.90;67.70;;;;;;4817022;55;21532;-38
2023/05/27 04:13:36;;;;;;;26.90;20.05;;;23.90;67.70;;;;;;4784915;55;21488;-33
2023/05/27 04:18:37;;;;;;;27.20;19.77;;;23.90;67.80;;;;;;4863686;55;21021;-34
2023/05/27 04:23:37;;;;;;;25.42;19.15;;;23.90;67.70;;;;;;4780631;55;21556;-38
2023/05/27 04:28:39;;;;;;;28.73;21.52;;;23.90;67.70;;;;;;4840082;55;21092;-29
2023/05/27 04:33:40;;;;;;;27.77;20.62;;;23.90;67.60;;;;;;4740631;59;21472;-33
2023/05/27 04:38:44;;;;;;;27.37;21.05;;;23.90;67.60;;;;;;4777390;55;21136;-35
2023/05/27 04:43:48;;;;;;;24.73;19.58;;;23.90;67.70;;;;;;4749157;55;21524;-39
2023/05/27 04:48:50;;;;;;;26.77;19.58;;;23.90;67.60;;;;;;4745219;55;21487;-34
2023/05/27 04:53:51;;;;;;;26.27;20.88;;;23.90;67.60;;;;;;4844902;55;21402;-37
2023/05/27 04:58:52;;;;;;;29.45;21.10;;;23.90;67.60;;;;;;4885889;55;21488;-33
2023/05/27 05:04:10;;;;;;;26.92;20.27;;;23.90;67.60;;;;;;4876103;55;21148;-33
2023/05/27 05:09:11;;;;;;;27.15;19.80;;;23.90;67.60;;;;;;4764424;55;21484;-33
2023/05/27 05:14:15;;;;;;;30.73;21.65;;;23.90;67.60;;;;;;4820695;55;21053;-34
2023/05/27 05:19:16;;;;;;;26.95;20.27;;;23.90;67.50;;;;;;4821131;55;20986;-33
2023/05/27 05:24:17;;;;;;;28.27;20.42;;;23.90;67.50;;;;;;4829330;55;21495;-33
2023/05/27 05:29:17;;;;;;;27.00;19.37;;;23.90;67.50;;;;;;4739400;59;21471;-33
2023/05/27 05:34:22;;;;;;;28.50;20.48;;;23.90;67.50;;;;;;4827363;55;21001;-34
2023/05/27 05:39:23;;;;;;;28.65;21.40;;;23.90;67.50;;;;;;4934207;54;21132;-35
2023/05/27 05:44:25;;;;;;;32.03;22.48;;;23.90;67.40;;;;;;4740266;55;21073;-34
2023/05/27 05:49:26;;;;;;;30.73;22.30;;;23.90;67.40;;;;;;4739737;59;21496;-33
2023/05/27 05:54:27;;;;;;;29.77;21.75;;;23.90;67.40;;;;;;4781500;55;21049;-32
2023/05/27 05:59:28;;;;;;;31.17;22.13;;;23.90;67.40;;;;;;4788239;55;21953;-36
2023/05/27 06:04:29;;;;;;;27.27;20.37;;;23.90;67.40;;;;;;4740014;59;22009;-37
2023/05/27 06:09:30;;;;;;;29.87;20.75;;;23.90;67.40;;;;;;4834462;55;21366;-34
2023/05/27 06:14:31;;;;;;;30.60;21.90;;;23.90;67.30;;;;;;4773498;55;21441;-33
2023/05/27 06:19:32;;;;;;;31.17;22.77;;;23.90;67.30;;;;;;5040843;55;21474;-33
2023/05/27 06:24:33;;;;;;;30.60;21.08;;;23.90;67.20;;;;;;4740098;59;21196;-36
2023/05/27 06:29:33;;;;;;;29.12;21.58;;;23.90;67.30;;;;;;4756654;55;21029;-38
2023/05/27 06:34:34;;;;;;;29.83;21.75;;;23.90;67.20;;;;;;4806859;55;21451;-34
2023/05/27 06:39:35;;;;;;;31.55;21.70;;;23.90;67.20;;;;;;4738679;59;21120;-35
2023/05/27 06:44:36;;;;;;;29.27;21.33;;;23.90;67.20;;;;;;4796054;55;21014;-33
2023/05/27 06:49:37;;;;;;;31.05;22.48;;;23.90;67.20;;;;;;4777882;55;21101;-33
2023/05/27 06:54:38;;;;;;;27.77;21.75;;;23.90;67.20;;;;;;4838959;55;21014;-40
2023/05/27 06:59:39;;;;;;;28.50;21.58;;;23.90;67.10;;;;;;4786262;55;21082;-32
2023/05/27 07:04:40;;;;;;;30.50;21.85;;;23.90;67.20;;;;;;4840956;55;21029;-34
2023/05/27 07:09:41;;;;;;;29.20;21.42;;;23.90;67.10;;;;;;4757765;55;21490;-37
2023/05/27 07:14:42;;;;;;;30.85;22.00;;;23.90;67.10;;;;;;4739982;59;21579;-33
2023/05/27 07:19:43;;;;;;;31.85;21.80;;;23.90;67.10;;;;;;5000662;55;21161;-36
2023/05/27 07:24:44;;;;;;;29.00;20.52;;;23.90;67.70;;;;;;4777035;55;21065;-37
2023/05/27 07:29:44;;;;;;;31.62;22.58;;;23.90;67.10;;;;;;4806388;55;21021;-36
2023/05/27 07:34:45;;;;;;;31.67;22.98;;;23.90;67.10;;;;;;4753476;55;21145;-36
2023/05/27 07:39:46;;;;;;;31.67;22.45;;;23.90;67.10;;;;;;4739094;59;21926;-34
2023/05/27 07:44:49;;;;;;;31.23;22.20;;;23.90;67.10;;;;;;4795921;55;21014;-34
2023/05/27 07:49:50;;;;;;;31.62;23.05;;;23.90;67.10;;;;;;4739253;59;21117;-33
2023/05/27 07:54:51;;;;;;;29.95;22.05;;;23.90;67.00;;;;;;4772340;55;21556;-34
2023/05/27 07:59:52;;;;;;;32.15;22.83;;;23.90;67.10;;;;;;4740006;55;21097;-34
2023/05/27 08:04:53;;;;;;;28.20;20.75;;;23.90;67.00;;;;;;4810075;54;21053;-33
2023/05/27 08:09:54;;;;;;;32.47;23.23;;;23.90;67.00;;;;;;4768057;55;21104;-35
2023/05/27 08:14:54;;;;;;;32.90;23.75;;;23.90;67.00;;;;;;4771791;54;20997;-33
2023/05/27 08:19:55;;;;;;;30.52;21.62;;;23.90;67.00;;;;;;4902619;55;21029;-34
2023/05/27 08:24:56;;;;;;;29.40;21.73;;;23.90;67.00;;;;;;4838365;55;21460;-36
2023/05/27 08:29:57;;;;;;;30.73;23.77;;;23.90;67.00;;;;;;4784142;55;21018;-33
2023/05/27 08:34:58;;;;;;;32.28;22.75;;;23.90;67.00;;;;;;4823692;55;21508;-33
2023/05/27 08:39:59;;;;;;;31.50;23.77;;;23.90;67.00;;;;;;4768453;54;21496;-35
2023/05/27 08:45:01;;;;;;;30.52;23.55;;;23.90;67.00;;;;;;4763042;55;21005;-33
2023/05/27 08:50:03;;;;;;;32.75;22.85;;;23.90;66.90;;;;;;4810855;55;21498;-40
2023/05/27 08:55:05;;;;;;;31.37;22.95;;;23.90;67.00;;;;;;4800589;55;21085;-35
2023/05/27 09:00:11;;;;;;;30.05;23.60;;;23.90;67.00;;;;;;4777601;55;21445;-35
2023/05/27 09:05:15;;;;;;;29.83;22.85;;;23.90;66.90;;;;;;4876516;55;21587;-37
2023/05/27 09:10:16;;;;;;;30.60;22.87;;;23.90;66.90;;;;;;4739279;55;21504;-34
2023/05/27 09:15:17;;;;;;;29.20;22.70;;;23.90;66.90;;;;;;4811944;54;21006;-36
2023/05/27 09:20:25;;;;;;;31.48;23.67;;;23.90;66.90;;;;;;4744617;55;21072;-32
2023/05/27 09:25:28;;;;;;;31.60;23.45;;;23.90;66.90;;;;;;4776410;55;21579;-34
2023/05/27 09:30:29;;;;;;;30.20;22.67;;;23.90;66.90;;;;;;4747563;55;21881;-36
2023/05/27 09:35:29;;;;;;;32.13;24.20;;;23.90;66.90;;;;;;4752588;55;21054;-36
2023/05/27 09:40:32;;;;;;;28.87;22.80;;;23.90;66.90;;;;;;4739609;59;21407;-34
2023/05/27 09:45:34;;;;;;;33.53;24.30;;;24.00;67.10;;;;;;4778486;55;21500;-39
2023/05/27 09:50:35;;;;;;;31.90;24.30;;;23.90;66.90;;;;;;4781072;55;21098;-42
2023/05/27 09:55:36;;;;;;;32.58;23.87;;;24.00;66.90;;;;;;4820937;55;21507;-34
2023/05/27 10:00:40;;;;;;;31.87;24.15;;;24.00;67.00;;;;;;4740167;55;21417;-34
2023/05/27 10:05:42;;;;;;;31.70;23.80;;;23.90;67.00;;;;;;4740338;55;21555;-34
2023/05/27 10:10:44;;;;;;;37.20;25.50;;;23.90;66.90;;;;;;4768186;55;21504;-34
2023/05/27 10:15:50;;;;;;;33.85;24.48;;;23.90;66.90;;;;;;4752833;55;21038;-33
2023/05/27 10:20:52;;;;;;;32.88;24.48;;;24.00;67.00;;;;;;4913964;55;21500;-35
2023/05/27 10:26:01;;;;;;;31.02;24.73;;;23.90;67.00;;;;;;4762837;55;21491;-33
2023/05/27 10:31:15;;;;;;;35.00;25.37;;;23.90;67.00;;;;;;4739848;59;21005;-34
2023/05/27 10:36:25;;;;;;;33.13;25.33;;;23.90;67.00;;;;;;4837078;55;21161;-32
2023/05/27 10:41:27;;;;;;;32.72;23.73;;;23.90;67.00;;;;;;4763387;55;21496;-34
2023/05/27 10:46:39;;;;;;;30.73;23.77;;;23.90;67.00;;;;;;4800852;55;21487;-34
2023/05/27 10:51:43;;;;;;;33.22;25.40;;;23.90;67.00;;;;;;4740013;59;22406;-38
2023/05/27 10:56:51;;;;;;;34.28;24.87;;;23.90;67.00;;;;;;4739961;59;21009;-38
2023/05/27 11:01:53;;;;;;;33.50;24.83;;;23.90;67.00;;;;;;4756876;55;21025;-36
2023/05/27 11:07:00;;;;;;;32.22;24.58;;;23.90;67.00;;;;;;4779192;55;21140;-38
2023/05/27 11:12:05;;;;;;;29.58;23.62;;;23.90;67.00;;;;;;4858861;55;20993;-35
2023/05/27 11:17:10;;;;;;;33.03;25.35;;;23.90;67.00;;;;;;4739508;59;21162;-33
2023/05/27 11:22:11;;;;;;;33.25;24.20;;;23.90;67.00;;;;;;4741849;55;20997;-32
2023/05/27 11:27:14;;;;;;;28.98;23.25;;;23.90;67.00;;;;;;4902590;55;21140;-33
2023/05/27 11:32:16;;;;;;;35.22;26.20;;;23.90;67.00;;;;;;4838627;55;21476;-33
2023/05/27 11:37:20;;;;;;;32.55;23.87;;;23.90;67.00;;;;;;4752244;55;21085;-36
2023/05/27 11:42:27;;;;;;;31.80;24.50;;;23.90;67.00;;;;;;4773054;55;21531;-32
2023/05/27 11:47:28;;;;;;;32.30;23.85;;;23.90;67.00;;;;;;4739625;59;21013;-34
2023/05/27 11:52:31;;;;;;;32.35;25.08;;;23.90;67.00;;;;;;4789625;55;21499;-35
2023/05/27 11:57:31;;;;;;;32.55;24.58;;;23.90;67.00;;;;;;4740120;59;21611;-35
2023/05/27 12:02:32;;;;;;;33.42;25.17;;;24.00;67.10;;;;;;4741274;55;21084;-34
2023/05/27 12:07:35;;;;;;;32.13;25.10;;;23.90;67.00;;;;;;4784334;55;21093;-33
2023/05/27 12:12:38;;;;;;;33.30;25.40;;;23.90;67.10;;;;;;4739880;59;21559;-34
2023/05/27 12:17:39;;;;;;;34.13;25.70;;;24.00;67.10;;;;;;4740632;59;21045;-34
2023/05/27 12:22:40;;;;;;;33.83;26.92;;;23.90;67.00;;;;;;4827113;55;21566;-33
2023/05/27 12:27:41;;;;;;;31.02;24.85;;;24.00;67.10;;;;;;4833174;55;21371;-33
2023/05/27 12:32:42;;;;;;;31.25;24.92;;;23.90;67.00;;;;;;4738922;59;21929;-36
2023/05/27 12:37:42;;;;;;;31.60;24.25;;;24.00;67.10;;;;;;4739250;59;21414;-33
2023/05/27 12:42:44;;;;;;;31.48;25.10;;;24.00;67.10;;;;;;4744043;55;21026;-37
2023/05/27 12:47:45;;;;;;;31.08;24.90;;;24.00;67.10;;;;;;4836914;55;21002;-35
2023/05/27 12:52:46;;;;;;;33.45;25.23;;;24.00;67.10;;;;;;4781342;55;21495;-35
2023/05/27 12:57:48;;;;;;;30.25;24.35;;;24.00;67.00;;;;;;4773504;55;21933;-33
2023/05/27 13:02:50;;;;;;;32.25;24.67;;;24.00;67.00;;;;;;4779764;55;21010;-39
2023/05/27 13:08:02;;;;;;;31.00;25.12;;;24.00;67.00;;;;;;4766878;55;21555;-34
2023/05/27 13:13:04;;;;;;;32.00;24.70;;;24.00;67.10;;;;;;4819730;55;20985;-34
2023/05/27 13:18:06;;;;;;;30.25;22.73;;;24.00;67.10;;;;;;4763669;55;21033;-31
2023/05/27 13:23:07;;;;;;;29.77;23.80;;;24.00;67.00;;;;;;4743711;55;21650;-33
2023/05/27 13:28:08;;;;;;;33.25;25.45;;;24.00;67.00;;;;;;4743006;55;21073;-33
2023/05/27 13:33:09;;;;;;;29.42;23.75;;;24.00;67.10;;;;;;4760401;54;21002;-34
2023/05/27 13:38:13;;;;;;;29.52;23.95;;;24.00;67.10;;;;;;4834967;55;21069;-37
2023/05/27 13:43:15;;;;;;;27.73;22.85;;;24.00;67.10;;;;;;4776521;55;21440;-37
2023/05/27 13:48:15;;;;;;;30.15;24.33;;;24.00;67.00;;;;;;4748396;55;21013;-33
2023/05/27 13:53:16;;;;;;;30.70;23.50;;;24.00;67.00;;;;;;4773677;55;21593;-33
2023/05/27 13:58:17;;;;;;;29.63;23.83;;;24.00;67.00;;;;;;4806331;55;21049;-35
2023/05/27 14:03:18;;;;;;;29.63;23.77;;;24.00;67.10;;;;;;4882783;55;21547;-33
2023/05/27 14:08:19;;;;;;;27.45;23.12;;;24.00;67.00;;;;;;4877294;55;21105;-40
2023/05/27 14:13:20;;;;;;;29.75;23.95;;;24.00;67.10;;;;;;4766194;54;21496;-34
2023/05/27 14:18:21;;;;;;;28.60;23.67;;;24.00;67.10;;;;;;4779095;55;21018;-33
2023/05/27 14:23:22;;;;;;;27.42;22.48;;;24.00;67.10;;;;;;4755619;55;21571;-33
2023/05/27 14:28:23;;;;;;;27.48;23.77;;;24.00;67.00;;;;;;4801055;55;21096;-32
2023/05/27 14:33:24;;;;;;;27.30;22.83;;;24.00;67.10;;;;;;4743612;55;21590;-37
2023/05/27 14:38:25;;;;;;;29.67;24.35;;;24.00;67.20;;;;;;4946219;54;21465;-32
2023/05/27 14:43:25;;;;;;;26.60;21.48;;;24.00;67.20;;;;;;4836037;55;21457;-33
2023/05/27 14:48:28;;;;;;;26.60;23.40;;;24.00;67.10;;;;;;4942722;55;21129;-37
2023/05/27 14:53:28;;;;;;;29.12;24.00;;;24.00;67.10;;;;;;4812498;55;21492;-38
2023/05/27 14:58:29;;;;;;;28.55;23.65;;;24.00;67.10;;;;;;4815858;55;21085;-37
2023/05/27 15:03:30;;;;;;;25.17;22.05;;;24.00;67.10;;;;;;4777332;55;21573;-35
2023/05/27 15:08:31;;;;;;;27.13;23.08;;;24.00;67.10;;;;;;4803681;55;21436;-34
2023/05/27 15:13:32;;;;;;;27.70;23.20;;;24.00;67.20;;;;;;4758669;55;21887;-36
2023/05/27 15:18:33;;;;;;;26.65;22.30;;;24.00;67.20;;;;;;4740453;55;22383;-35
2023/05/27 15:23:34;;;;;;;26.58;22.50;;;24.00;67.20;;;;;;4748805;55;21009;-32
2023/05/27 15:28:35;;;;;;;24.77;20.90;;;24.00;67.20;;;;;;4834007;55;21402;-33
2023/05/27 15:33:36;;;;;;;26.12;21.52;;;24.00;67.20;;;;;;4739786;59;21109;-31
2023/05/27 15:38:37;;;;;;;26.12;21.80;;;24.00;67.30;;;;;;4739354;59;21046;-40
2023/05/27 15:43:37;;;;;;;24.52;21.20;;;24.00;67.20;;;;;;4760863;55;21057;-34
2023/05/27 15:48:38;;;;;;;25.25;21.65;;;24.00;67.20;;;;;;4834888;54;21093;-40
2023/05/27 15:53:39;;;;;;;26.23;21.30;;;24.00;67.20;;;;;;4782176;55;21046;-40
2023/05/27 15:58:40;;;;;;;27.50;23.10;;;24.00;67.20;;;;;;4758803;55;21480;-35
2023/05/27 16:03:41;;;;;;;23.90;20.55;;;24.00;67.30;;;;;;4767888;55;21476;-38
2023/05/27 16:08:42;;;;;;;28.00;22.08;;;24.00;67.20;;;;;;4801795;55;21037;-33
2023/05/27 16:13:43;;;;;;;25.02;20.50;;;24.00;67.30;;;;;;4796702;55;21006;-34
2023/05/27 16:18:43;;;;;;;24.17;21.20;;;24.00;67.30;;;;;;4745389;55;21005;-34
2023/05/27 16:23:44;;;;;;;24.80;21.55;;;24.00;67.30;;;;;;4761422;54;21049;-33
2023/05/27 16:28:45;;;;;;;25.55;21.33;;;24.00;67.30;;;;;;4739654;59;21025;-37
2023/05/27 16:33:46;;;;;;;24.67;21.20;;;24.00;67.30;;;;;;4818418;55;21397;-34
2023/05/27 16:38:47;;;;;;;25.85;21.33;;;24.00;67.30;;;;;;4782389;55;21034;-34
2023/05/27 16:43:48;;;;;;;25.10;21.80;;;24.00;67.40;;;;;;4796330;55;21009;-33
2023/05/27 16:48:48;;;;;;;25.67;21.17;;;24.00;67.40;;;;;;4839385;55;21114;-35
2023/05/27 16:53:49;;;;;;;26.70;22.85;;;24.00;67.40;;;;;;4779497;55;21128;-35
2023/05/27 16:58:54;;;;;;;25.35;20.92;;;24.00;67.30;;;;;;4747837;55;21077;-35
2023/05/27 17:03:55;;;;;;;25.23;21.60;;;24.00;67.40;;;;;;4796345;55;21497;-33
2023/05/27 17:08:56;;;;;;;23.95;21.35;;;24.00;67.40;;;;;;4739675;59;21077;-36
2023/05/27 17:13:57;;;;;;;24.85;21.85;;;24.00;68.10;;;;;;4739958;59;21563;-35
2023/05/27 17:18:58;;;;;;;25.80;21.42;;;24.00;67.40;;;;;;4758320;55;21049;-37
2023/05/27 17:23:58;;;;;;;25.25;21.80;;;24.00;67.40;;;;;;4846276;55;21018;-37
2023/05/27 17:29:00;;;;;;;22.65;20.23;;;24.00;67.40;;;;;;4765450;55;21045;-34
2023/05/27 17:34:01;;;;;;;25.00;20.98;;;24.00;67.40;;;;;;4783206;55;21586;-35
2023/05/27 17:39:03;;;;;;;25.73;21.52;;;24.00;67.40;;;;;;4771765;55;21534;-34
2023/05/27 17:44:04;;;;;;;23.92;21.33;;;24.00;67.50;;;;;;4890814;55;21021;-34
2023/05/27 17:49:05;;;;;;;23.73;21.17;;;24.00;67.50;;;;;;4832192;54;21092;-38
2023/05/27 17:54:05;;;;;;;23.98;21.00;;;24.00;68.10;;;;;;4926220;55;21013;-36
2023/05/27 17:59:06;;;;;;;24.08;20.95;;;24.00;67.40;;;;;;4894114;55;22253;-36
2023/05/27 18:04:07;;;;;;;25.17;21.37;;;24.00;67.50;;;;;;4787160;55;21073;-38
2023/05/27 18:09:09;;;;;;;22.45;18.95;;;24.00;67.50;;;;;;4766331;55;21659;-34
2023/05/27 18:14:10;;;;;;;22.65;20.25;;;24.00;67.60;;;;;;4768109;55;21579;-33
2023/05/27 18:19:11;;;;;;;24.15;21.00;;;24.00;67.60;;;;;;4805048;55;21913;-33
2023/05/27 18:24:16;;;;;;;23.40;20.35;;;24.00;67.50;;;;;;4746729;55;21417;-33
2023/05/27 18:29:16;;;;;;;26.30;22.05;;;24.00;67.60;;;;;;4739836;59;21203;-33
2023/05/27 18:34:18;;;;;;;24.08;21.25;;;24.00;67.50;;;;;;4775710;55;21089;-40
2023/05/27 18:39:18;;;;;;;22.48;20.02;;;24.00;67.50;;;;;;4775091;55;21014;-38
2023/05/27 18:44:19;;;;;;;23.12;20.45;;;24.00;67.50;;;;;;4906815;55;21066;-38
2023/05/27 18:49:22;;;;;;;22.67;20.00;;;24.00;67.60;;;;;;4849623;55;20997;-34
2023/05/27 18:54:23;;;;;;;22.55;20.12;;;24.00;67.50;;;;;;4769676;55;21136;-33
2023/05/27 18:59:24;;;;;;;23.42;20.92;;;24.00;67.60;;;;;;4779943;55;21104;-34
2023/05/27 19:04:25;;;;;;;22.87;20.48;;;24.00;67.60;;;;;;4813361;55;21069;-36
2023/05/27 19:09:26;;;;;;;23.48;20.98;;;24.10;67.50;;;;;;4776452;54;21010;-37
2023/05/27 19:14:26;;;;;;;23.25;20.75;;;24.00;67.50;;;;;;4740068;55;21069;-39
2023/05/27 19:19:27;;;;;;;22.77;20.12;;;24.00;67.50;;;;;;4846983;55;21080;-37
2023/05/27 19:24:28;;;;;;;21.60;19.30;;;24.00;67.50;;;;;;4829106;54;21005;-35
2023/05/27 19:29:29;;;;;;;22.20;19.65;;;24.00;67.50;;;;;;4752518;55;21157;-36
2023/05/27 19:34:30;;;;;;;22.55;20.15;;;24.00;67.50;;;;;;4775836;55;21062;-39
2023/05/27 19:39:30;;;;;;;21.58;19.27;;;24.00;67.50;;;;;;4766169;54;21631;-33
2023/05/27 19:44:33;;;;;;;21.12;18.92;;;24.00;67.50;;;;;;4785275;55;21018;-34
2023/05/27 19:49:35;;;;;;;25.50;20.55;;;24.00;67.50;;;;;;4805656;55;21069;-33
2023/05/27 19:54:36;;;;;;;20.88;18.70;;;24.00;67.50;;;;;;4815647;55;21499;-34
2023/05/27 19:59:37;;;;;;;22.67;19.35;;;24.00;67.50;;;;;;4794198;54;21093;-33
2023/05/27 20:04:38;;;;;;;21.45;19.20;;;24.00;67.40;;;;;;4832387;55;21539;-35
2023/05/27 20:09:39;;;;;;;20.23;18.05;;;24.00;67.30;;;;;;4772134;54;21180;-37
2023/05/27 20:14:40;;;;;;;20.60;18.40;;;24.00;67.30;;;;;;4750804;55;21535;-36
2023/05/27 20:19:41;;;;;;;20.23;18.12;;;24.00;67.40;;;;;;4826160;55;21081;-37
2023/05/27 20:24:42;;;;;;;20.90;18.27;;;24.00;67.30;;;;;;4808557;55;21038;-35
2023/05/27 20:29:43;;;;;;;18.98;16.98;;;24.00;67.30;;;;;;4781898;55;20997;-34
2023/05/27 20:34:44;;;;;;;20.70;18.50;;;24.00;67.30;;;;;;4740293;59;21528;-38
2023/05/27 20:39:46;;;;;;;20.37;17.62;;;24.00;67.30;;;;;;4827497;54;21053;-34
2023/05/27 20:44:47;;;;;;;21.52;18.62;;;24.00;67.20;;;;;;4740165;59;21666;-33
2023/05/27 20:49:48;;;;;;;20.80;18.20;;;24.00;67.20;;;;;;4835735;55;21595;-33
2023/05/27 20:54:49;;;;;;;19.52;17.30;;;24.00;67.20;;;;;;4763298;55;21013;-34
2023/05/27 20:59:50;;;;;;;19.87;17.70;;;24.00;67.20;;;;;;4756890;55;21057;-33
2023/05/27 21:04:51;;;;;;;18.73;16.73;;;24.00;67.20;;;;;;4871600;55;21572;-32
2023/05/27 21:09:52;;;;;;;19.17;17.23;;;24.00;67.10;;;;;;4776944;55;21575;-38
2023/05/27 21:14:53;;;;;;;19.92;17.12;;;24.00;67.20;;;;;;4829737;55;20993;-33
2023/05/27 21:19:54;;;;;;;19.58;17.17;;;24.00;67.10;;;;;;4771463;55;21501;-33
2023/05/27 21:24:55;;;;;;;18.80;16.75;;;24.00;67.20;;;;;;4877586;55;21025;-38
2023/05/27 21:29:56;;;;;;;18.75;16.77;;;24.00;67.10;;;;;;4829874;54;21556;-37
2023/05/27 21:34:57;;;;;;;18.02;16.17;;;24.00;67.10;;;;;;4764283;55;21483;-35
2023/05/27 21:39:58;;;;;;;16.92;15.23;;;24.00;67.10;;;;;;4777030;55;21073;-39
2023/05/27 21:44:59;;;;;;;19.20;17.20;;;24.00;67.20;;;;;;4781180;55;21064;-35
2023/05/27 21:49:59;;;;;;;18.70;16.77;;;24.00;67.10;;;;;;4746348;55;21025;-33
2023/05/27 21:55:00;;;;;;;17.40;15.27;;;24.00;67.10;;;;;;4837411;55;21116;-38
2023/05/27 22:00:05;;;;;;;17.17;15.38;;;24.00;67.10;;;;;;4739940;59;21002;-38
2023/05/27 22:05:06;;;;;;;19.20;16.48;;;24.00;67.10;;;;;;5040775;55;21045;-35
2023/05/27 22:10:08;;;;;;;17.50;15.63;;;24.00;67.10;;;;;;4811525;55;20993;-35
2023/05/27 22:15:10;;;;;;;16.62;14.85;;;24.00;67.10;;;;;;4745022;55;20977;-35
2023/05/27 22:20:11;;;;;;;16.77;14.73;;;23.90;67.00;;;;;;4740183;55;21004;-34
2023/05/27 22:25:12;;;;;;;18.02;15.48;;;24.00;67.10;;;;;;4739951;59;21068;-34
2023/05/27 22:30:14;;;;;;;18.27;16.37;;;24.00;67.10;;;;;;4739800;55;21078;-35
2023/05/27 22:35:15;;;;;;;17.77;15.32;;;24.00;67.10;;;;;;4806566;55;21021;-33
2023/05/27 22:40:16;;;;;;;18.25;16.35;;;24.00;67.40;;;;;;4752378;54;21069;-33
2023/05/27 22:45:17;;;;;;;16.17;14.48;;;24.00;67.10;;;;;;4740392;59;21093;-35
2023/05/27 22:50:18;;;;;;;18.45;16.50;;;24.00;67.10;;;;;;4862451;55;21057;-36
2023/05/27 22:55:19;;;;;;;17.50;15.63;;;24.00;67.10;;;;;;4804922;55;21017;-38
2023/05/27 23:00:20;;;;;;;16.58;14.87;;;24.00;67.10;;;;;;4740279;55;21033;-34
2023/05/27 23:05:20;;;;;;;17.20;15.43;;;24.00;67.10;;;;;;4739623;59;21081;-38
2023/05/27 23:10:21;;;;;;;17.42;15.63;;;24.00;67.10;;;;;;4831145;55;21033;-35
2023/05/27 23:15:24;;;;;;;17.90;14.68;;;24.00;67.10;;;;;;4872833;55;21085;-35
2023/05/27 23:20:25;;;;;;;16.25;14.63;;;24.00;67.10;;;;;;4787592;55;21492;-35
2023/05/27 23:25:26;;;;;;;17.05;15.35;;;24.00;67.10;;;;;;4747891;55;21009;-35
2023/05/27 23:30:26;;;;;;;16.05;14.35;;;24.00;67.30;;;;;;4946338;55;21145;-35
2023/05/27 23:35:27;;;;;;;15.85;14.10;;;24.00;67.10;;;;;;4739847;59;21152;-34
2023/05/27 23:40:31;;;;;;;16.42;14.65;;;24.00;67.20;;;;;;4805435;54;21077;-32
2023/05/27 23:45:32;;;;;;;15.30;13.75;;;24.00;67.10;;;;;;4755881;55;21484;-34
2023/05/27 23:50:33;;;;;;;15.35;13.75;;;24.00;67.10;;;;;;4807686;55;21073;-33
2023/05/27 23:55:34;;;;;;;16.87;15.07;;;23.90;67.00;;;;;;4752666;55;21523;-34
